createdAt,value
2018-04-06T00:00:51.540Z,51.10
2018-04-06T00:01:54.064Z,51.12
2018-04-06T00:02:56.536Z,51.20
2018-04-06T00:03:59.050Z,51.25
2018-04-06T00:05:01.546Z,51.27
2018-04-06T00:06:04.031Z,51.23
2018-04-06T00:07:06.528Z,51.29
2018-04-06T00:08:09.047Z,51.26
2018-04-06T00:09:11.539Z,51.25
2018-04-06T00:10:14.046Z,51.37
2018-04-06T00:11:16.520Z,51.63
2018-04-06T00:12:19.042Z,51.51
2018-04-06T00:13:21.530Z,51.55
2018-04-06T00:14:24.031Z,51.63
2018-04-06T00:15:26.534Z,51.54
2018-04-06T00:16:29.055Z,51.55
2018-04-06T00:17:31.550Z,51.47
2018-04-06T00:18:34.096Z,51.70
2018-04-06T00:19:36.572Z,51.64
2018-04-06T00:20:39.075Z,51.69
2018-04-06T00:21:41.544Z,51.73
2018-04-06T00:22:44.050Z,51.70
2018-04-06T00:23:46.534Z,51.65
2018-04-06T00:24:49.041Z,51.55
2018-04-06T00:25:51.518Z,51.62
2018-04-06T00:26:53.993Z,51.60
2018-04-06T00:27:56.498Z,51.67
2018-04-06T00:28:58.982Z,51.85
2018-04-06T00:30:01.460Z,51.90
2018-04-06T00:31:03.953Z,52.03
2018-04-06T00:32:06.442Z,52.07
2018-04-06T00:33:08.933Z,52.11
2018-04-06T00:34:11.441Z,52.28
2018-04-06T00:35:13.945Z,52.17
2018-04-06T00:36:16.433Z,52.12
2018-04-06T00:37:18.937Z,52.29
2018-04-06T00:38:21.431Z,52.20
2018-04-06T00:39:23.923Z,52.15
2018-04-06T00:40:26.428Z,52.10
2018-04-06T00:41:28.921Z,52.21
2018-04-06T00:42:31.421Z,52.06
2018-04-06T00:43:33.924Z,52.16
2018-04-06T00:44:36.422Z,52.11
2018-04-06T00:45:38.892Z,52.13
2018-04-06T00:46:41.400Z,52.12
2018-04-06T00:47:43.954Z,52.13
2018-04-06T00:48:46.460Z,52.14
2018-04-06T00:49:48.936Z,52.09
2018-04-06T00:50:51.431Z,52.23
2018-04-06T00:51:53.926Z,52.48
2018-04-06T00:52:56.433Z,52.58
2018-04-06T00:53:58.940Z,52.59
2018-04-06T00:55:02.375Z,52.62
2018-04-06T00:56:04.863Z,52.63
2018-04-06T00:57:07.354Z,52.70
2018-04-06T00:58:09.860Z,52.67
2018-04-06T00:59:12.349Z,52.77
2018-04-06T01:00:14.884Z,52.69
2018-04-06T01:01:17.383Z,52.62
2018-04-06T01:02:19.859Z,52.54
2018-04-06T01:03:22.346Z,52.59
2018-04-06T01:04:24.913Z,52.72
2018-04-06T01:05:27.407Z,52.56
2018-04-06T01:06:29.894Z,52.43
2018-04-06T01:07:32.392Z,52.50
2018-04-06T01:08:34.877Z,52.39
2018-04-06T01:09:37.386Z,52.38
2018-04-06T01:10:39.882Z,52.34
2018-04-06T01:11:42.370Z,52.39
2018-04-06T01:12:44.877Z,52.39
2018-04-06T01:13:47.352Z,52.50
2018-04-06T01:14:49.858Z,52.56
2018-04-06T01:15:52.350Z,52.57
2018-04-06T01:16:54.859Z,52.82
2018-04-06T01:17:57.346Z,52.98
2018-04-06T01:18:59.837Z,52.79
2018-04-06T01:20:02.342Z,52.64
2018-04-06T01:21:04.829Z,52.57
2018-04-06T01:22:07.300Z,52.43
2018-04-06T01:23:09.802Z,52.40
2018-04-06T01:24:12.286Z,52.46
2018-04-06T01:25:14.791Z,52.45
2018-04-06T01:26:17.279Z,52.55
2018-04-06T01:27:19.784Z,52.72
2018-04-06T01:28:22.263Z,52.72
2018-04-06T01:29:24.777Z,52.87
2018-04-06T01:30:27.269Z,52.70
2018-04-06T01:31:29.767Z,52.58
2018-04-06T01:32:32.254Z,52.43
2018-04-06T01:33:34.777Z,52.29
2018-04-06T01:34:37.266Z,52.25
2018-04-06T01:35:39.762Z,52.29
2018-04-06T01:36:42.270Z,52.30
2018-04-06T01:37:44.755Z,52.31
2018-04-06T01:38:47.265Z,52.34
2018-04-06T01:39:49.750Z,52.28
2018-04-06T01:40:52.258Z,52.34
2018-04-06T01:41:54.776Z,52.41
2018-04-06T01:42:57.247Z,52.67
2018-04-06T01:43:59.760Z,52.69
2018-04-06T01:45:02.246Z,52.70
2018-04-06T01:46:04.775Z,52.64
2018-04-06T01:47:07.277Z,52.63
2018-04-06T01:48:09.775Z,52.63
2018-04-06T01:49:12.262Z,52.62
2018-04-06T01:50:14.767Z,52.73
2018-04-06T01:51:17.278Z,52.69
2018-04-06T01:52:19.785Z,52.80
2018-04-06T01:53:22.292Z,52.97
2018-04-06T01:54:24.786Z,53.08
2018-04-06T01:55:27.278Z,53.18
2018-04-06T01:56:29.798Z,53.25
2018-04-06T01:57:32.275Z,53.38
2018-04-06T01:58:34.781Z,53.44
2018-04-06T01:59:37.266Z,53.36
2018-04-06T02:00:39.778Z,53.44
2018-04-06T02:01:42.345Z,53.38
2018-04-06T02:02:44.820Z,53.29
2018-04-06T02:03:47.293Z,53.36
2018-04-06T02:04:49.815Z,53.41
2018-04-06T02:05:52.322Z,53.34
2018-04-06T02:06:54.849Z,53.34
2018-04-06T02:07:57.338Z,53.34
2018-04-06T02:08:59.840Z,53.41
2018-04-06T02:10:02.316Z,53.50
2018-04-06T02:11:04.803Z,53.51
2018-04-06T02:12:07.357Z,53.39
2018-04-06T02:13:09.848Z,53.27
2018-04-06T02:14:12.348Z,53.20
2018-04-06T02:15:14.834Z,53.24
2018-04-06T02:16:17.319Z,53.35
2018-04-06T02:17:19.837Z,53.23
2018-04-06T02:18:22.311Z,53.30
2018-04-06T02:19:24.788Z,53.24
2018-04-06T02:20:27.287Z,53.12
2018-04-06T02:21:29.760Z,53.39
2018-04-06T02:22:32.248Z,53.36
2018-04-06T02:23:34.716Z,53.42
2018-04-06T02:24:37.209Z,53.38
2018-04-06T02:25:39.715Z,53.26
2018-04-06T02:26:42.203Z,53.41
2018-04-06T02:27:44.716Z,53.71
2018-04-06T02:28:47.220Z,53.56
2018-04-06T02:29:49.729Z,53.72
2018-04-06T02:30:52.246Z,53.63
2018-04-06T02:31:54.721Z,53.82
2018-04-06T02:32:57.291Z,53.75
2018-04-06T02:33:59.785Z,53.59
2018-04-06T02:35:02.298Z,53.48
2018-04-06T02:36:04.773Z,53.39
2018-04-06T02:37:07.276Z,53.56
2018-04-06T02:38:09.790Z,53.65
2018-04-06T02:39:12.300Z,53.51
2018-04-06T02:40:14.777Z,53.49
2018-04-06T02:41:17.274Z,53.56
2018-04-06T02:42:19.781Z,53.56
2018-04-06T02:43:22.292Z,53.82
2018-04-06T02:44:24.783Z,53.96
2018-04-06T02:45:27.299Z,53.94
2018-04-06T02:46:29.787Z,53.70
2018-04-06T02:47:32.275Z,53.70
2018-04-06T02:48:34.776Z,53.82
2018-04-06T02:49:37.253Z,53.97
2018-04-06T02:50:39.724Z,54.16
2018-04-06T02:51:42.215Z,54.25
2018-04-06T02:52:44.723Z,54.29
2018-04-06T02:53:47.223Z,54.35
2018-04-06T02:54:49.708Z,54.23
2018-04-06T02:55:52.196Z,54.42
2018-04-06T02:56:54.757Z,54.31
2018-04-06T02:57:57.247Z,54.00
2018-04-06T02:58:59.774Z,53.85
2018-04-06T03:00:02.282Z,53.75
2018-04-06T03:01:04.767Z,53.95
2018-04-06T03:02:07.281Z,54.32
2018-04-06T03:03:09.813Z,54.44
2018-04-06T03:04:12.333Z,54.32
2018-04-06T03:05:14.816Z,54.32
2018-04-06T03:06:17.290Z,54.22
2018-04-06T03:07:19.797Z,54.09
2018-04-06T03:08:22.301Z,54.37
2018-04-06T03:09:24.825Z,54.65
2018-04-06T03:10:27.345Z,54.53
2018-04-06T03:11:29.830Z,54.24
2018-04-06T03:12:32.322Z,54.24
2018-04-06T03:13:34.815Z,54.43
2018-04-06T03:14:37.320Z,54.54
2018-04-06T03:15:39.829Z,54.46
2018-04-06T03:16:42.330Z,54.51
2018-04-06T03:17:44.819Z,54.59
2018-04-06T03:18:47.310Z,54.57
2018-04-06T03:19:49.800Z,54.52
2018-04-06T03:20:52.286Z,54.51
2018-04-06T03:21:54.764Z,54.68
2018-04-06T03:22:57.308Z,54.61
2018-04-06T03:23:59.794Z,54.60
2018-04-06T03:25:02.314Z,54.62
2018-04-06T03:26:04.803Z,54.92
2018-04-06T03:27:07.307Z,55.08
2018-04-06T03:28:09.810Z,54.93
2018-04-06T03:29:12.297Z,54.87
2018-04-06T03:30:14.787Z,54.66
2018-04-06T03:31:17.286Z,54.51
2018-04-06T03:32:19.764Z,54.43
2018-04-06T03:33:22.258Z,54.35
2018-04-06T03:34:24.746Z,54.29
2018-04-06T03:35:27.256Z,54.30
2018-04-06T03:36:29.766Z,54.28
2018-04-06T03:37:32.273Z,54.66
2018-04-06T03:38:34.780Z,54.86
2018-04-06T03:39:37.296Z,54.75
2018-04-06T03:40:39.801Z,54.48
2018-04-06T03:41:42.291Z,54.57
2018-04-06T03:42:44.778Z,54.79
2018-04-06T03:43:47.297Z,54.60
2018-04-06T03:44:49.798Z,54.53
2018-04-06T03:45:52.295Z,54.78
2018-04-06T03:46:54.783Z,54.72
2018-04-06T03:47:57.293Z,54.39
2018-04-06T03:48:59.801Z,54.42
2018-04-06T03:50:02.310Z,54.78
2018-04-06T03:51:04.848Z,55.21
2018-04-06T03:52:07.343Z,55.19
2018-04-06T03:53:09.834Z,55.09
2018-04-06T03:54:12.324Z,54.85
2018-04-06T03:55:14.830Z,54.82
2018-04-06T03:56:17.351Z,55.03
2018-04-06T03:57:19.834Z,55.04
2018-04-06T03:58:22.319Z,55.20
2018-04-06T03:59:24.802Z,55.09
2018-04-06T04:00:27.302Z,55.08
2018-04-06T04:01:29.798Z,55.16
2018-04-06T04:02:32.273Z,55.00
2018-04-06T04:03:34.762Z,55.24
2018-04-06T04:04:37.250Z,55.33
2018-04-06T04:05:39.739Z,55.40
2018-04-06T04:06:42.260Z,55.69
2018-04-06T04:07:44.748Z,55.61
2018-04-06T04:08:47.250Z,55.37
2018-04-06T04:09:49.747Z,55.32
2018-04-06T04:10:52.220Z,55.19
2018-04-06T04:11:54.790Z,55.12
2018-04-06T04:12:57.232Z,55.05
2018-04-06T04:13:59.737Z,54.94
2018-04-06T04:15:02.225Z,54.91
2018-04-06T04:16:04.718Z,54.90
2018-04-06T04:17:07.238Z,54.99
2018-04-06T04:18:09.734Z,55.20
2018-04-06T04:19:12.219Z,55.62
2018-04-06T04:20:14.711Z,55.92
2018-04-06T04:21:17.211Z,56.09
2018-04-06T04:22:19.739Z,56.15
2018-04-06T04:23:22.248Z,55.97
2018-04-06T04:24:24.716Z,55.60
2018-04-06T04:25:27.203Z,55.43
2018-04-06T04:26:29.698Z,55.33
2018-04-06T04:27:32.232Z,55.49
2018-04-06T04:28:34.727Z,55.69
2018-04-06T04:29:37.210Z,55.65
2018-04-06T04:30:39.699Z,55.66
2018-04-06T04:31:42.205Z,55.72
2018-04-06T04:32:44.700Z,55.76
2018-04-06T04:33:47.186Z,55.71
2018-04-06T04:34:49.678Z,55.41
2018-04-06T04:35:52.176Z,55.52
2018-04-06T04:36:54.677Z,55.96
2018-04-06T04:37:57.197Z,55.77
2018-04-06T04:38:59.710Z,55.61
2018-04-06T04:40:02.225Z,55.90
2018-04-06T04:41:04.720Z,56.02
2018-04-06T04:42:07.211Z,55.59
2018-04-06T04:43:09.695Z,55.47
2018-04-06T04:44:12.165Z,55.61
2018-04-06T04:45:14.680Z,55.89
2018-04-06T04:46:17.181Z,56.19
2018-04-06T04:47:19.675Z,56.20
2018-04-06T04:48:22.193Z,55.97
2018-04-06T04:49:24.686Z,55.78
2018-04-06T04:50:27.160Z,55.96
2018-04-06T04:51:29.647Z,56.23
2018-04-06T04:52:32.164Z,56.08
2018-04-06T04:53:34.643Z,55.83
2018-04-06T04:54:37.111Z,55.74
2018-04-06T04:55:39.652Z,55.87
2018-04-06T04:56:42.152Z,55.77
2018-04-06T04:57:44.648Z,55.47
2018-04-06T04:58:47.139Z,55.72
2018-04-06T04:59:49.627Z,56.04
2018-04-06T05:00:52.122Z,56.15
2018-04-06T05:01:54.614Z,56.18
2018-04-06T05:02:57.121Z,56.03
2018-04-06T05:03:59.624Z,56.07
2018-04-06T05:05:02.121Z,56.04
2018-04-06T05:06:04.611Z,56.10
2018-04-06T05:07:07.099Z,55.93
2018-04-06T05:08:09.602Z,55.60
2018-04-06T05:09:12.084Z,55.53
2018-04-06T05:10:14.556Z,55.63
2018-04-06T05:11:17.047Z,55.79
2018-04-06T05:12:19.538Z,55.90
2018-04-06T05:13:22.061Z,55.99
2018-04-06T05:14:24.546Z,55.89
2018-04-06T05:15:27.058Z,56.32
2018-04-06T05:16:29.544Z,56.17
2018-04-06T05:17:32.039Z,55.91
2018-04-06T05:18:34.554Z,55.69
2018-04-06T05:19:37.046Z,55.69
2018-04-06T05:20:39.570Z,55.86
2018-04-06T05:21:42.062Z,55.69
2018-04-06T05:22:44.536Z,55.46
2018-04-06T05:23:47.062Z,55.48
2018-04-06T05:24:49.546Z,55.62
2018-04-06T05:25:52.048Z,55.81
2018-04-06T05:26:54.546Z,55.99
2018-04-06T05:27:57.039Z,55.99
2018-04-06T05:28:59.546Z,56.01
2018-04-06T05:30:02.038Z,55.90
2018-04-06T05:31:04.516Z,55.77
2018-04-06T05:32:07.002Z,55.86
2018-04-06T05:33:09.487Z,56.03
2018-04-06T05:34:11.986Z,56.08
2018-04-06T05:35:14.478Z,56.19
2018-04-06T05:36:16.966Z,56.40
2018-04-06T05:37:19.459Z,56.08
2018-04-06T05:38:21.963Z,56.32
2018-04-06T05:39:24.449Z,56.22
2018-04-06T05:40:27.078Z,56.31
2018-04-06T05:41:29.555Z,56.35
2018-04-06T05:42:32.061Z,56.32
2018-04-06T05:43:34.551Z,56.63
2018-04-06T05:44:37.037Z,56.64
2018-04-06T05:45:39.522Z,56.85
2018-04-06T05:46:42.042Z,56.85
2018-04-06T05:47:44.530Z,56.65
2018-04-06T05:48:47.031Z,56.48
2018-04-06T05:49:49.542Z,56.38
2018-04-06T05:50:52.028Z,56.53
2018-04-06T05:51:54.500Z,56.49
2018-04-06T05:52:56.972Z,56.82
2018-04-06T05:53:59.476Z,57.09
2018-04-06T05:55:02.001Z,56.76
2018-04-06T05:56:04.586Z,56.59
2018-04-06T05:57:07.077Z,56.73
2018-04-06T05:58:09.584Z,56.94
2018-04-06T05:59:12.079Z,57.00
2018-04-06T06:00:14.590Z,56.99
2018-04-06T06:01:17.116Z,57.77
2018-04-06T06:02:19.607Z,57.53
2018-04-06T06:03:22.091Z,56.47
2018-04-06T06:04:24.583Z,51.55
2018-04-06T06:05:27.087Z,49.21
2018-04-06T06:06:29.582Z,47.22
2018-04-06T06:07:32.078Z,46.97
2018-04-06T06:08:34.579Z,45.89
2018-04-06T06:09:37.101Z,44.98
2018-04-06T06:10:39.600Z,44.66
2018-04-06T06:11:42.133Z,44.17
2018-04-06T06:12:44.619Z,43.89
2018-04-06T06:13:47.153Z,43.78
2018-04-06T06:14:49.632Z,43.53
2018-04-06T06:15:52.143Z,43.54
2018-04-06T06:16:54.648Z,43.24
2018-04-06T06:17:57.142Z,43.09
2018-04-06T06:18:59.653Z,42.55
2018-04-06T06:20:02.144Z,41.96
2018-04-06T06:21:04.670Z,41.98
2018-04-06T06:22:07.180Z,41.80
2018-04-06T06:23:09.693Z,41.34
2018-04-06T06:24:12.202Z,40.96
2018-04-06T06:25:14.695Z,40.79
2018-04-06T06:26:17.228Z,40.48
2018-04-06T06:27:19.820Z,40.35
2018-04-06T06:28:22.431Z,40.22
2018-04-06T06:29:24.941Z,40.07
2018-04-06T06:30:27.431Z,40.19
2018-04-06T06:31:30.063Z,40.27
2018-04-06T06:32:32.574Z,40.21
2018-04-06T06:33:35.105Z,40.05
2018-04-06T06:34:37.615Z,40.06
2018-04-06T06:35:40.099Z,40.10
2018-04-06T06:36:42.620Z,40.04
2018-04-06T06:37:45.112Z,40.50
2018-04-06T06:38:47.639Z,40.41
2018-04-06T06:39:50.118Z,40.41
2018-04-06T06:40:52.610Z,40.76
2018-04-06T06:41:55.135Z,41.35
2018-04-06T06:42:57.663Z,41.42
2018-04-06T06:44:00.150Z,41.83
2018-04-06T06:45:02.652Z,41.83
2018-04-06T06:46:05.184Z,42.21
2018-04-06T06:47:07.699Z,42.51
2018-04-06T06:48:10.227Z,42.46
2018-04-06T06:49:12.750Z,42.63
2018-04-06T06:50:15.260Z,42.58
2018-04-06T06:51:17.742Z,42.60
2018-04-06T06:52:20.239Z,42.81
2018-04-06T06:53:22.733Z,42.76
2018-04-06T06:54:25.254Z,42.72
2018-04-06T06:55:27.757Z,42.74
2018-04-06T06:56:30.264Z,42.86
2018-04-06T06:57:32.764Z,43.03
2018-04-06T06:58:35.259Z,43.03
2018-04-06T06:59:37.815Z,43.11
2018-04-06T07:00:40.314Z,43.16
2018-04-06T07:01:42.806Z,43.25
2018-04-06T07:02:45.338Z,43.25
2018-04-06T07:03:47.854Z,43.34
2018-04-06T07:04:50.337Z,43.43
2018-04-06T07:05:52.818Z,43.42
2018-04-06T07:06:55.344Z,43.52
2018-04-06T07:07:57.863Z,43.58
2018-04-06T07:09:00.354Z,43.83
2018-04-06T07:10:02.867Z,43.98
2018-04-06T07:11:05.372Z,44.02
2018-04-06T07:12:07.874Z,43.98
2018-04-06T07:13:10.398Z,43.99
2018-04-06T07:14:12.916Z,44.09
2018-04-06T07:15:15.410Z,44.23
2018-04-06T07:16:17.910Z,44.28
2018-04-06T07:17:20.406Z,44.34
2018-04-06T07:18:22.953Z,44.51
2018-04-06T07:19:25.433Z,44.62
2018-04-06T07:20:27.924Z,44.69
2018-04-06T07:21:30.401Z,44.70
2018-04-06T07:22:32.896Z,44.77
2018-04-06T07:23:35.420Z,44.86
2018-04-06T07:24:37.962Z,44.90
2018-04-06T07:25:40.445Z,45.01
2018-04-06T07:26:42.942Z,45.06
2018-04-06T07:27:45.448Z,45.13
2018-04-06T07:28:47.963Z,45.18
2018-04-06T07:29:50.477Z,45.21
2018-04-06T07:30:53.015Z,45.26
2018-04-06T07:31:55.505Z,45.27
2018-04-06T07:32:57.982Z,45.32
2018-04-06T07:34:00.509Z,45.40
2018-04-06T07:35:03.002Z,45.47
2018-04-06T07:36:05.491Z,45.52
2018-04-06T07:37:07.964Z,45.51
2018-04-06T07:38:10.450Z,45.55
2018-04-06T07:39:12.967Z,45.56
2018-04-06T07:40:15.447Z,45.60
2018-04-06T07:41:17.987Z,45.62
2018-04-06T07:42:20.461Z,45.61
2018-04-06T07:43:22.958Z,45.65
2018-04-06T07:44:25.457Z,45.69
2018-04-06T07:45:27.985Z,45.72
2018-04-06T07:46:30.468Z,45.67
2018-04-06T07:47:32.988Z,45.71
2018-04-06T07:48:35.464Z,45.80
2018-04-06T07:49:37.971Z,45.84
2018-04-06T07:50:40.472Z,45.90
2018-04-06T07:51:42.993Z,45.89
2018-04-06T07:52:45.507Z,45.91
2018-04-06T07:53:48.024Z,45.92
2018-04-06T07:54:50.534Z,45.94
2018-04-06T07:55:53.019Z,45.96
2018-04-06T07:56:55.539Z,45.97
2018-04-06T07:57:58.002Z,46.02
2018-04-06T07:59:00.501Z,46.03
2018-04-06T08:00:03.037Z,46.04
2018-04-06T08:01:05.513Z,46.07
2018-04-06T08:02:07.991Z,46.10
2018-04-06T08:03:10.496Z,46.11
2018-04-06T08:04:12.990Z,46.13
2018-04-06T08:05:15.498Z,46.14
2018-04-06T08:06:18.014Z,46.15
2018-04-06T08:07:20.513Z,46.16
2018-04-06T08:08:23.026Z,46.17
2018-04-06T08:09:25.532Z,46.21
2018-04-06T08:10:28.071Z,46.23
2018-04-06T08:11:30.555Z,46.24
2018-04-06T08:12:33.062Z,46.25
2018-04-06T08:13:35.540Z,46.27
2018-04-06T08:14:38.045Z,46.29
2018-04-06T08:15:40.565Z,46.30
2018-04-06T08:16:43.094Z,46.24
2018-04-06T08:17:45.568Z,45.95
2018-04-06T08:18:48.095Z,45.50
2018-04-06T08:19:50.582Z,44.67
2018-04-06T08:20:53.086Z,44.11
2018-04-06T08:21:55.557Z,43.45
2018-04-06T08:22:58.130Z,43.23
2018-04-06T08:24:00.641Z,43.18
2018-04-06T08:25:03.124Z,42.97
2018-04-06T08:26:05.635Z,43.16
2018-04-06T08:27:08.138Z,43.13
2018-04-06T08:28:10.611Z,43.07
2018-04-06T08:29:13.088Z,43.22
2018-04-06T08:30:15.588Z,43.14
2018-04-06T08:31:18.084Z,43.05
2018-04-06T08:32:20.570Z,43.06
2018-04-06T08:33:23.074Z,43.02
2018-04-06T08:34:25.546Z,42.94
2018-04-06T08:35:28.051Z,42.81
2018-04-06T08:36:30.566Z,42.86
2018-04-06T08:37:33.039Z,42.82
2018-04-06T08:38:35.531Z,42.80
2018-04-06T08:39:38.022Z,42.75
2018-04-06T08:40:40.533Z,42.71
2018-04-06T08:41:43.034Z,42.67
2018-04-06T08:42:45.530Z,42.67
2018-04-06T08:43:48.033Z,42.65
2018-04-06T08:44:50.509Z,42.65
2018-04-06T08:45:53.041Z,42.64
2018-04-06T08:46:55.534Z,42.62
2018-04-06T08:47:58.052Z,42.65
2018-04-06T08:49:00.539Z,42.67
2018-04-06T08:50:03.045Z,42.70
2018-04-06T08:51:05.533Z,42.70
2018-04-06T08:52:08.009Z,42.71
2018-04-06T08:53:10.518Z,42.70
2018-04-06T08:54:13.249Z,42.75
2018-04-06T08:55:15.743Z,42.86
2018-04-06T08:56:18.247Z,42.94
2018-04-06T08:57:20.757Z,42.97
2018-04-06T08:58:23.272Z,42.97
2018-04-06T08:59:25.762Z,42.96
2018-04-06T09:00:28.250Z,43.01
2018-04-06T09:01:30.769Z,43.14
2018-04-06T09:02:33.261Z,43.15
2018-04-06T09:03:35.777Z,43.12
2018-04-06T09:04:38.292Z,43.03
2018-04-06T09:05:40.762Z,43.01
2018-04-06T09:06:43.268Z,42.99
2018-04-06T09:07:45.780Z,42.99
2018-04-06T09:08:48.290Z,42.93
2018-04-06T09:09:50.782Z,42.90
2018-04-06T09:10:53.348Z,42.86
2018-04-06T09:11:55.900Z,42.83
2018-04-06T09:12:58.397Z,42.83
2018-04-06T09:14:00.897Z,42.82
2018-04-06T09:15:03.391Z,42.74
2018-04-06T09:16:05.903Z,42.72
2018-04-06T09:17:08.392Z,42.73
2018-04-06T09:18:10.895Z,42.73
2018-04-06T09:19:14.152Z,42.73
2018-04-06T09:20:17.067Z,42.75
2018-04-06T09:21:19.646Z,42.79
2018-04-06T09:22:22.457Z,42.74
2018-04-06T09:23:24.991Z,42.73
2018-04-06T09:24:27.561Z,42.71
2018-04-06T09:25:30.067Z,42.77
2018-04-06T09:26:32.561Z,42.84
2018-04-06T09:27:35.090Z,42.89
2018-04-06T09:28:37.597Z,42.84
2018-04-06T09:29:40.087Z,42.82
2018-04-06T09:30:43.271Z,42.78
2018-04-06T09:31:45.865Z,42.77
2018-04-06T09:32:48.780Z,42.79
2018-04-06T09:33:51.416Z,42.79
2018-04-06T09:34:54.011Z,42.79
2018-04-06T09:35:56.552Z,42.82
2018-04-06T09:36:59.102Z,42.83
2018-04-06T09:38:01.638Z,42.75
2018-04-06T09:39:04.157Z,42.68
2018-04-06T09:40:06.661Z,42.69
2018-04-06T09:41:09.144Z,42.72
2018-04-06T09:42:11.655Z,42.74
2018-04-06T09:43:14.165Z,42.94
2018-04-06T09:44:16.650Z,43.01
2018-04-06T09:45:19.125Z,43.23
2018-04-06T09:46:21.626Z,43.25
2018-04-06T09:47:24.093Z,43.19
2018-04-06T09:48:26.585Z,43.18
2018-04-06T09:49:29.062Z,43.17
2018-04-06T09:50:31.544Z,43.05
2018-04-06T09:51:34.020Z,42.90
2018-04-06T09:52:36.494Z,42.81
2018-04-06T09:53:38.985Z,42.72
2018-04-06T09:54:41.461Z,42.76
2018-04-06T09:55:43.984Z,42.82
2018-04-06T09:56:46.460Z,42.81
2018-04-06T09:57:48.936Z,42.76
2018-04-06T09:58:51.460Z,42.67
2018-04-06T09:59:53.944Z,42.65
2018-04-06T10:00:59.260Z,42.56
2018-04-06T10:02:18.540Z,42.58
2018-04-06T10:03:21.016Z,42.52
2018-04-06T10:04:23.500Z,42.60
2018-04-06T10:05:25.981Z,42.68
2018-04-06T10:06:28.456Z,42.63
2018-04-06T10:07:30.944Z,42.57
2018-04-06T10:08:33.429Z,42.56
2018-04-06T10:09:35.912Z,42.54
2018-04-06T10:10:38.392Z,42.56
2018-04-06T10:11:40.882Z,42.54
2018-04-06T10:12:43.384Z,42.55
2018-04-06T10:13:45.872Z,42.56
2018-04-06T10:14:48.381Z,42.56
2018-04-06T10:15:50.859Z,42.55
2018-04-06T10:16:53.332Z,42.47
2018-04-06T10:17:55.806Z,42.45
2018-04-06T10:18:58.284Z,42.45
2018-04-06T10:20:00.780Z,42.49
2018-04-06T10:21:03.248Z,42.38
2018-04-06T10:22:05.721Z,42.29
2018-04-06T10:23:08.196Z,42.22
2018-04-06T10:24:10.666Z,42.19
2018-04-06T10:25:13.170Z,42.19
2018-04-06T10:26:15.642Z,42.18
2018-04-06T10:27:18.136Z,42.15
2018-04-06T10:28:20.603Z,42.16
2018-04-06T10:29:23.165Z,42.18
2018-04-06T10:30:25.656Z,42.07
2018-04-06T10:31:28.132Z,42.01
2018-04-06T10:32:30.632Z,41.99
2018-04-06T10:33:33.116Z,41.94
2018-04-06T10:34:35.588Z,41.97
2018-04-06T10:35:38.172Z,42.01
2018-04-06T10:36:40.644Z,41.97
2018-04-06T10:37:43.125Z,41.97
2018-04-06T10:38:45.602Z,41.94
2018-04-06T10:39:48.076Z,41.96
2018-04-06T10:40:50.573Z,41.91
2018-04-06T10:41:53.050Z,41.91
2018-04-06T10:42:55.516Z,41.90
2018-04-06T10:43:57.996Z,41.85
2018-04-06T10:45:00.483Z,41.83
2018-04-06T10:46:02.982Z,41.83
2018-04-06T10:47:05.455Z,41.86
2018-04-06T10:48:07.943Z,41.88
2018-04-06T10:49:10.420Z,41.95
2018-04-06T10:50:12.919Z,41.83
2018-04-06T10:51:15.412Z,41.79
2018-04-06T10:52:17.886Z,41.89
2018-04-06T10:53:20.364Z,42.04
2018-04-06T10:54:22.856Z,42.31
2018-04-06T10:55:25.335Z,42.38
2018-04-06T10:56:27.829Z,42.37
2018-04-06T10:57:30.295Z,42.33
2018-04-06T10:58:32.808Z,42.25
2018-04-06T10:59:35.265Z,42.04
2018-04-06T11:00:37.745Z,41.85
2018-04-06T11:01:40.288Z,41.58
2018-04-06T11:02:42.769Z,41.38
2018-04-06T11:03:45.253Z,41.16
2018-04-06T11:04:47.731Z,40.97
2018-04-06T11:05:50.202Z,40.78
2018-04-06T11:06:52.696Z,40.70
2018-04-06T11:07:55.178Z,40.64
2018-04-06T11:08:57.653Z,40.53
2018-04-06T11:10:00.125Z,40.50
2018-04-06T11:11:02.611Z,40.42
2018-04-06T11:12:05.092Z,40.39
2018-04-06T11:13:07.682Z,40.43
2018-04-06T11:14:10.321Z,40.48
2018-04-06T11:15:13.174Z,40.52
2018-04-06T11:16:16.662Z,40.52
2018-04-06T11:17:20.648Z,40.49
2018-04-06T11:18:23.365Z,40.49
2018-04-06T11:19:25.882Z,40.37
2018-04-06T11:20:28.357Z,40.28
2018-04-06T11:21:31.771Z,40.23
2018-04-06T11:22:34.241Z,40.04
2018-04-06T11:23:36.818Z,40.00
2018-04-06T11:24:39.289Z,39.91
2018-04-06T11:25:41.764Z,39.88
2018-04-06T11:26:44.478Z,39.94
2018-04-06T11:27:47.812Z,40.02
2018-04-06T11:28:50.292Z,40.08
2018-04-06T11:29:52.768Z,40.11
2018-04-06T11:30:55.247Z,40.19
2018-04-06T11:31:57.731Z,40.27
2018-04-06T11:33:00.208Z,40.28
2018-04-06T11:34:02.718Z,40.24
2018-04-06T11:35:05.172Z,40.04
2018-04-06T11:36:07.645Z,39.98
2018-04-06T11:37:10.132Z,40.05
2018-04-06T11:38:12.600Z,39.92
2018-04-06T11:39:15.072Z,39.84
2018-04-06T11:40:17.688Z,39.76
2018-04-06T11:41:20.177Z,39.76
2018-04-06T11:42:22.649Z,39.77
2018-04-06T11:43:25.169Z,39.80
2018-04-06T11:44:27.652Z,39.84
2018-04-06T11:45:30.119Z,39.91
2018-04-06T11:46:32.616Z,39.92
2018-04-06T11:47:35.101Z,40.02
2018-04-06T11:48:37.581Z,39.89
2018-04-06T11:49:40.052Z,40.08
2018-04-06T11:50:42.520Z,40.00
2018-04-06T11:51:45.116Z,39.96
2018-04-06T11:52:47.588Z,40.04
2018-04-06T11:53:50.084Z,39.98
2018-04-06T11:54:52.561Z,39.65
2018-04-06T11:55:55.042Z,39.21
2018-04-06T11:56:57.552Z,39.00
2018-04-06T11:58:00.024Z,38.85
2018-04-06T11:59:02.500Z,38.84
2018-04-06T12:00:04.968Z,38.82
2018-04-06T12:01:07.441Z,38.77
2018-04-06T12:02:09.933Z,38.75
2018-04-06T12:03:12.415Z,38.64
2018-04-06T12:04:14.888Z,38.71
2018-04-06T12:05:17.368Z,38.73
2018-04-06T12:06:19.840Z,38.79
2018-04-06T12:07:22.320Z,38.80
2018-04-06T12:08:24.793Z,38.88
2018-04-06T12:09:27.276Z,38.92
2018-04-06T12:10:29.744Z,39.01
2018-04-06T12:11:32.213Z,39.02
2018-04-06T12:12:34.707Z,39.07
2018-04-06T12:13:37.181Z,39.18
2018-04-06T12:14:39.648Z,39.23
2018-04-06T12:15:42.127Z,39.32
2018-04-06T12:16:44.600Z,39.40
2018-04-06T12:17:47.088Z,39.46
2018-04-06T12:18:49.576Z,39.55
2018-04-06T12:19:52.044Z,39.60
2018-04-06T12:20:54.516Z,39.68
2018-04-06T12:21:56.997Z,39.78
2018-04-06T12:22:59.500Z,39.87
2018-04-06T12:24:01.976Z,39.92
2018-04-06T12:25:04.449Z,39.90
2018-04-06T12:26:06.940Z,39.92
2018-04-06T12:27:09.426Z,39.88
2018-04-06T12:28:11.928Z,39.80
2018-04-06T12:29:14.406Z,39.74
2018-04-06T12:30:16.887Z,39.85
2018-04-06T12:31:19.359Z,39.99
2018-04-06T12:32:21.833Z,40.02
2018-04-06T12:33:24.333Z,40.07
2018-04-06T12:34:26.828Z,40.08
2018-04-06T12:35:29.296Z,40.15
2018-04-06T12:36:31.764Z,40.23
2018-04-06T12:37:34.256Z,40.17
2018-04-06T12:38:36.821Z,40.23
2018-04-06T12:39:39.304Z,40.26
2018-04-06T12:40:41.777Z,40.31
2018-04-06T12:41:44.248Z,40.25
2018-04-06T12:42:46.729Z,40.16
2018-04-06T12:43:49.220Z,40.29
2018-04-06T12:44:51.696Z,40.31
2018-04-06T12:45:54.176Z,40.36
2018-04-06T12:46:56.656Z,40.38
2018-04-06T12:47:59.137Z,40.40
2018-04-06T12:49:01.640Z,40.46
2018-04-06T12:50:04.120Z,40.55
2018-04-06T12:51:06.603Z,40.60
2018-04-06T12:52:09.085Z,40.61
2018-04-06T12:53:11.566Z,40.63
2018-04-06T12:54:14.061Z,40.68
2018-04-06T12:55:16.530Z,40.71
2018-04-06T12:56:19.147Z,40.74
2018-04-06T12:57:21.844Z,40.75
2018-04-06T12:58:24.328Z,40.75
2018-04-06T12:59:26.829Z,40.80
2018-04-06T13:00:29.363Z,40.82
2018-04-06T13:01:31.934Z,40.84
2018-04-06T13:02:34.405Z,40.86
2018-04-06T13:03:36.916Z,40.88
2018-04-06T13:04:39.400Z,40.89
2018-04-06T13:05:41.872Z,41.00
2018-04-06T13:06:44.344Z,40.98
2018-04-06T13:07:46.825Z,40.96
2018-04-06T13:08:49.324Z,40.99
2018-04-06T13:09:51.817Z,41.24
2018-04-06T13:10:54.294Z,41.33
2018-04-06T13:11:56.769Z,41.35
2018-04-06T13:12:59.249Z,41.25
2018-04-06T13:14:01.765Z,41.25
2018-04-06T13:15:04.265Z,41.05
2018-04-06T13:16:06.750Z,40.92
2018-04-06T13:17:09.232Z,40.64
2018-04-06T13:18:11.709Z,40.41
2018-04-06T13:19:14.180Z,40.30
2018-04-06T13:20:16.789Z,40.10
2018-04-06T13:21:19.494Z,39.98
2018-04-06T13:22:21.984Z,39.90
2018-04-06T13:23:24.492Z,39.85
2018-04-06T13:24:27.100Z,39.81
2018-04-06T13:25:29.894Z,39.76